Time;durP1;ratioP1;P1;durP2;ratioP2;P2;SDS_P1;SDS_P2;PMS_P1;PMS_P2;Temp;Humidity;BMP_temperature;BMP_pressure;BME280_temperature;BME280_humidity;BME280_pressure;Samples;Min_cycle;Max_cycle;Signal;HPM_P1;HPM_P2
2024/01/17 00:01:40;;;;;;;27.23;14.07;;;;;;;;;;5102976;28;20353;-73
2024/01/17 00:04:05;;;;;;;25.50;14.17;;;;;;;;;;5107267;28;21326;-74
2024/01/17 00:06:31;;;;;;;25.17;14.75;;;;;;;;;;5104077;28;20297;-74
2024/01/17 00:08:56;;;;;;;21.95;13.32;;;;;;;;;;5108581;28;20022;-74
2024/01/17 00:11:21;;;;;;;25.20;15.23;;;;;;;;;;5103638;28;20030;-74
2024/01/17 00:13:46;;;;;;;21.17;13.57;;;;;;;;;;5108629;28;20273;-74
2024/01/17 00:16:19;;;;;;;24.38;14.23;;;;;;;;;;5101207;28;20365;-73
2024/01/17 00:18:44;;;;;;;22.67;12.95;;;;;;;;;;5101009;28;20080;-74
2024/01/17 00:21:09;;;;;;;23.47;13.07;;;;;;;;;;5103654;28;20451;-74
2024/01/17 00:23:35;;;;;;;25.33;14.07;;;;;;;;;;5104424;28;20301;-73
2024/01/17 00:26:00;;;;;;;22.83;14.55;;;;;;;;;;5102045;28;20307;-74
2024/01/17 00:28:25;;;;;;;25.33;14.80;;;;;;;;;;5106170;28;20024;-73
2024/01/17 00:30:50;;;;;;;24.57;13.80;;;;;;;;;;5100642;28;20680;-74
2024/01/17 00:33:15;;;;;;;25.80;15.07;;;;;;;;;;5108131;28;20276;-74
2024/01/17 00:35:41;;;;;;;30.25;14.70;;;;;;;;;;5100075;28;20099;-74
2024/01/17 00:38:06;;;;;;;25.47;14.20;;;;;;;;;;5108158;28;20024;-74
2024/01/17 00:40:31;;;;;;;21.67;13.57;;;;;;;;;;5100858;28;20273;-73
2024/01/17 00:42:57;;;;;;;23.75;14.63;;;;;;;;;;5106006;28;20284;-74
2024/01/17 00:45:22;;;;;;;22.53;13.67;;;;;;;;;;5102012;28;20027;-74
2024/01/17 00:47:47;;;;;;;22.52;14.10;;;;;;;;;;5104908;28;20268;-74
2024/01/17 00:50:14;;;;;;;25.45;14.05;;;;;;;;;;5106907;28;20531;-74
2024/01/17 00:52:39;;;;;;;25.90;14.48;;;;;;;;;;5107455;28;20076;-74
2024/01/17 00:55:04;;;;;;;23.38;14.48;;;;;;;;;;5111364;28;20375;-74
2024/01/17 00:57:30;;;;;;;22.75;14.15;;;;;;;;;;5106494;28;20042;-74
2024/01/17 00:59:55;;;;;;;23.17;13.87;;;;;;;;;;5107785;28;20127;-74
2024/01/17 01:02:20;;;;;;;22.60;13.30;;;;;;;;;;5107799;28;20261;-74
2024/01/17 01:04:45;;;;;;;25.65;13.55;;;;;;;;;;5106310;28;20298;-74
2024/01/17 01:07:10;;;;;;;25.40;12.87;;;;;;;;;;5113687;28;20030;-73
2024/01/17 01:09:36;;;;;;;24.73;13.05;;;;;;;;;;5116141;28;20273;-74
2024/01/17 01:12:01;;;;;;;22.15;12.93;;;;;;;;;;5115403;28;20019;-74
2024/01/17 01:14:26;;;;;;;22.90;14.27;;;;;;;;;;5116169;28;20019;-74
2024/01/17 01:16:51;;;;;;;25.20;13.60;;;;;;;;;;5115128;28;20459;-74
2024/01/17 01:19:16;;;;;;;23.83;13.50;;;;;;;;;;5109121;28;20262;-74
2024/01/17 01:21:42;;;;;;;20.38;12.35;;;;;;;;;;5104359;28;20024;-73
2024/01/17 01:24:08;;;;;;;24.85;13.60;;;;;;;;;;5110584;28;20044;-74
2024/01/17 01:26:35;;;;;;;24.23;13.55;;;;;;;;;;5114490;28;20489;-74
2024/01/17 01:29:00;;;;;;;22.45;13.10;;;;;;;;;;5115974;28;20058;-74
2024/01/17 01:31:25;;;;;;;23.53;13.07;;;;;;;;;;5106647;28;20047;-74
2024/01/17 01:33:51;;;;;;;25.67;13.40;;;;;;;;;;5110498;28;20732;-74
2024/01/17 01:36:16;;;;;;;23.08;13.52;;;;;;;;;;5105067;28;20297;-73
2024/01/17 01:38:41;;;;;;;25.55;13.02;;;;;;;;;;5107880;28;20085;-74
2024/01/17 01:41:06;;;;;;;23.27;12.73;;;;;;;;;;5107219;28;20518;-74
2024/01/17 01:43:31;;;;;;;23.97;12.80;;;;;;;;;;5113141;28;20031;-74
2024/01/17 01:46:12;;;;;;;20.50;12.73;;;;;;;;;;5106018;28;20745;-74
2024/01/17 01:48:39;;;;;;;22.50;12.95;;;;;;;;;;5107173;28;20038;-74
2024/01/17 01:51:04;;;;;;;24.02;12.57;;;;;;;;;;5107008;28;20424;-74
2024/01/17 01:53:30;;;;;;;22.33;13.13;;;;;;;;;;5104888;28;20136;-74
2024/01/17 01:55:56;;;;;;;23.80;12.93;;;;;;;;;;5106108;28;20268;-74
2024/01/17 01:58:21;;;;;;;23.13;12.52;;;;;;;;;;5106797;28;20043;-74
2024/01/17 02:00:48;;;;;;;22.10;12.85;;;;;;;;;;5102956;28;20364;-74
2024/01/17 02:03:13;;;;;;;24.88;11.95;;;;;;;;;;5106862;28;20477;-74
2024/01/17 02:05:39;;;;;;;21.92;12.13;;;;;;;;;;5104524;28;20016;-74
2024/01/17 02:08:04;;;;;;;23.08;12.00;;;;;;;;;;5105674;28;20019;-74
2024/01/17 02:10:29;;;;;;;22.90;12.65;;;;;;;;;;5104830;28;20099;-73
2024/01/17 02:12:54;;;;;;;20.53;12.10;;;;;;;;;;5105917;28;20020;-74
2024/01/17 02:15:19;;;;;;;24.90;13.63;;;;;;;;;;5105747;28;20276;-74
2024/01/17 02:17:44;;;;;;;19.38;11.85;;;;;;;;;;5105297;28;20050;-74
2024/01/17 02:20:10;;;;;;;23.25;11.57;;;;;;;;;;5106647;28;20098;-74
2024/01/17 02:22:35;;;;;;;20.65;11.32;;;;;;;;;;5106018;28;20123;-74
2024/01/17 02:25:04;;;;;;;22.38;12.13;;;;;;;;;;5104597;28;20032;-74
2024/01/17 02:27:30;;;;;;;20.35;11.52;;;;;;;;;;5107561;27;20023;-74
2024/01/17 02:29:55;;;;;;;22.25;12.25;;;;;;;;;;5103092;28;20028;-74
2024/01/17 02:32:20;;;;;;;22.52;12.50;;;;;;;;;;5110594;28;20033;-74
2024/01/17 02:34:45;;;;;;;18.08;12.60;;;;;;;;;;5101847;28;20140;-74
2024/01/17 02:37:12;;;;;;;23.65;11.85;;;;;;;;;;5111191;28;20020;-74
2024/01/17 02:39:37;;;;;;;29.15;13.25;;;;;;;;;;5102739;28;20031;-74
2024/01/17 02:42:02;;;;;;;22.77;12.27;;;;;;;;;;5109821;28;20379;-74
2024/01/17 02:44:27;;;;;;;23.02;12.63;;;;;;;;;;5102666;28;20301;-74
2024/01/17 02:46:53;;;;;;;18.43;11.97;;;;;;;;;;5109017;28;20030;-74
2024/01/17 02:49:19;;;;;;;20.33;12.03;;;;;;;;;;5104067;28;20265;-74
2024/01/17 02:51:44;;;;;;;21.52;11.93;;;;;;;;;;5102105;28;20313;-74
2024/01/17 02:54:10;;;;;;;22.92;11.40;;;;;;;;;;5107525;28;20043;-74
2024/01/17 02:56:35;;;;;;;18.08;11.48;;;;;;;;;;5102416;28;20059;-74
2024/01/17 02:59:00;;;;;;;23.93;11.87;;;;;;;;;;5105089;28;20522;-74
2024/01/17 03:01:25;;;;;;;22.23;10.65;;;;;;;;;;5105466;28;20753;-74
2024/01/17 03:03:50;;;;;;;19.90;11.50;;;;;;;;;;5102372;28;20035;-73
2024/01/17 03:06:16;;;;;;;24.50;10.77;;;;;;;;;;5105557;28;20367;-73
2024/01/17 03:08:41;;;;;;;18.75;10.98;;;;;;;;;;5102753;28;20281;-74
2024/01/17 03:11:07;;;;;;;20.83;10.63;;;;;;;;;;5104609;28;20437;-74
2024/01/17 03:13:32;;;;;;;22.48;10.55;;;;;;;;;;5103264;28;20269;-73
2024/01/17 03:15:57;;;;;;;21.92;11.02;;;;;;;;;;5105643;28;20107;-74
2024/01/17 03:18:23;;;;;;;22.65;11.43;;;;;;;;;;5104693;28;20030;-74
2024/01/17 03:20:48;;;;;;;23.03;10.63;;;;;;;;;;5103955;28;20088;-74
2024/01/17 03:23:13;;;;;;;21.40;11.05;;;;;;;;;;5105413;28;20289;-74
2024/01/17 03:25:38;;;;;;;21.77;12.07;;;;;;;;;;5104765;28;20087;-74
2024/01/17 03:28:04;;;;;;;22.48;10.70;;;;;;;;;;5104352;28;20044;-74
2024/01/17 03:30:30;;;;;;;16.30;10.57;;;;;;;;;;5105415;28;20531;-74
2024/01/17 03:32:55;;;;;;;20.98;10.82;;;;;;;;;;5103877;28;20031;-74
2024/01/17 03:35:20;;;;;;;20.48;10.80;;;;;;;;;;5105188;28;20019;-74
2024/01/17 03:37:46;;;;;;;20.33;11.23;;;;;;;;;;5105725;28;20447;-74
2024/01/17 03:40:11;;;;;;;21.15;11.18;;;;;;;;;;5102935;28;20266;-73
2024/01/17 03:42:36;;;;;;;16.80;10.57;;;;;;;;;;5108650;28;20032;-74
2024/01/17 03:45:01;;;;;;;21.10;10.63;;;;;;;;;;5100644;28;20051;-74
2024/01/17 03:47:27;;;;;;;19.70;10.98;;;;;;;;;;5104168;28;20016;-74
2024/01/17 03:49:52;;;;;;;19.85;11.00;;;;;;;;;;5104446;28;20039;-73
2024/01/17 03:52:19;;;;;;;18.37;10.40;;;;;;;;;;5101111;28;20103;-73
2024/01/17 03:54:44;;;;;;;18.40;10.88;;;;;;;;;;5106237;28;20766;-74
2024/01/17 03:57:10;;;;;;;20.85;10.23;;;;;;;;;;5103290;28;20119;-74
2024/01/17 03:59:35;;;;;;;20.58;11.63;;;;;;;;;;5101146;28;20023;-73
2024/01/17 04:02:00;;;;;;;17.73;10.50;;;;;;;;;;5101772;28;20020;-73
2024/01/17 04:04:26;;;;;;;16.88;9.90;;;;;;;;;;5102188;28;20042;-74
2024/01/17 04:06:51;;;;;;;22.92;11.35;;;;;;;;;;5102554;28;20016;-74
2024/01/17 04:09:17;;;;;;;19.58;10.57;;;;;;;;;;5104720;28;20071;-74
2024/01/17 04:11:42;;;;;;;20.40;10.60;;;;;;;;;;5100700;28;20027;-73
2024/01/17 04:14:07;;;;;;;18.90;11.27;;;;;;;;;;5094955;28;20020;-74
2024/01/17 04:16:34;;;;;;;17.37;9.77;;;;;;;;;;5102671;28;20016;-73
2024/01/17 04:18:59;;;;;;;21.55;10.43;;;;;;;;;;5106390;28;20259;-73
2024/01/17 04:21:25;;;;;;;16.43;9.80;;;;;;;;;;5100472;28;20023;-73
2024/01/17 04:23:50;;;;;;;18.23;10.25;;;;;;;;;;5107139;28;20970;-73
2024/01/17 04:26:23;;;;;;;20.00;10.73;;;;;;;;;;5101261;28;20039;-74
2024/01/17 04:28:48;;;;;;;20.67;11.40;;;;;;;;;;5107410;28;20383;-73
2024/01/17 04:31:21;;;;;;;21.30;10.77;;;;;;;;;;5100862;28;20268;-73
2024/01/17 04:33:46;;;;;;;17.88;9.93;;;;;;;;;;5108133;28;20495;-73
2024/01/17 04:36:11;;;;;;;19.57;10.83;;;;;;;;;;5100305;28;20082;-73
2024/01/17 04:38:37;;;;;;;18.00;10.15;;;;;;;;;;5107669;28;20353;-73
2024/01/17 04:41:02;;;;;;;18.08;10.20;;;;;;;;;;5100441;28;20015;-73
2024/01/17 04:43:28;;;;;;;18.48;10.27;;;;;;;;;;5105898;28;20027;-73
2024/01/17 04:45:53;;;;;;;19.90;9.90;;;;;;;;;;5107389;28;20362;-73
2024/01/17 04:48:18;;;;;;;18.10;10.30;;;;;;;;;;5103109;28;20266;-74
2024/01/17 04:50:43;;;;;;;17.33;10.25;;;;;;;;;;5104025;28;20011;-73
2024/01/17 04:53:10;;;;;;;16.35;9.95;;;;;;;;;;5103295;28;20049;-73
2024/01/17 04:55:35;;;;;;;23.73;11.20;;;;;;;;;;5103137;28;20024;-73
2024/01/17 04:58:00;;;;;;;18.27;10.40;;;;;;;;;;5103407;28;20054;-73
2024/01/17 05:00:26;;;;;;;17.47;9.63;;;;;;;;;;5103424;28;20024;-73
2024/01/17 05:02:51;;;;;;;17.85;9.55;;;;;;;;;;5102925;28;20293;-73
2024/01/17 05:05:16;;;;;;;19.33;10.20;;;;;;;;;;5103635;28;20020;-74
2024/01/17 05:07:41;;;;;;;17.10;10.80;;;;;;;;;;5103874;28;20730;-73
2024/01/17 05:10:07;;;;;;;16.23;9.00;;;;;;;;;;5101690;28;20277;-73
2024/01/17 05:12:33;;;;;;;19.65;9.80;;;;;;;;;;5102753;28;20274;-74
2024/01/17 05:14:58;;;;;;;16.70;9.68;;;;;;;;;;5103858;28;20352;-73
2024/01/17 05:17:23;;;;;;;16.20;10.20;;;;;;;;;;5101555;28;20038;-73
2024/01/17 05:19:48;;;;;;;18.58;9.32;;;;;;;;;;5099511;28;20019;-73
2024/01/17 05:22:14;;;;;;;15.60;9.13;;;;;;;;;;5103771;28;20008;-73
2024/01/17 05:24:39;;;;;;;21.58;9.60;;;;;;;;;;5101566;28;20028;-73
2024/01/17 05:27:04;;;;;;;19.05;10.32;;;;;;;;;;5103519;28;20471;-73
2024/01/17 05:29:32;;;;;;;17.40;9.75;;;;;;;;;;5103297;28;20020;-74
2024/01/17 05:31:58;;;;;;;17.83;10.68;;;;;;;;;;5102310;28;20020;-73
2024/01/17 05:34:23;;;;;;;23.93;10.17;;;;;;;;;;5105383;28;20020;-73
2024/01/17 05:36:48;;;;;;;21.60;9.97;;;;;;;;;;5104623;28;20730;-73
2024/01/17 05:39:13;;;;;;;22.38;11.15;;;;;;;;;;5110415;28;20368;-73
2024/01/17 05:41:38;;;;;;;18.40;10.47;;;;;;;;;;5104225;28;20454;-73
2024/01/17 05:44:04;;;;;;;21.05;12.25;;;;;;;;;;5111656;28;20301;-73
2024/01/17 05:46:29;;;;;;;17.13;10.55;;;;;;;;;;5103222;28;20020;-73
2024/01/17 05:48:54;;;;;;;24.63;10.75;;;;;;;;;;5112040;28;20065;-73
2024/01/17 05:51:19;;;;;;;17.40;10.02;;;;;;;;;;5103371;28;20483;-73
2024/01/17 05:53:44;;;;;;;19.23;10.40;;;;;;;;;;5109177;28;20054;-73
2024/01/17 05:56:10;;;;;;;21.65;10.07;;;;;;;;;;5105939;28;20059;-73
2024/01/17 05:58:35;;;;;;;27.65;10.85;;;;;;;;;;5106916;28;20062;-73
2024/01/17 06:01:00;;;;;;;18.60;10.17;;;;;;;;;;5106883;28;20031;-73
2024/01/17 06:03:25;;;;;;;19.02;10.43;;;;;;;;;;5106649;28;20398;-73
2024/01/17 06:05:51;;;;;;;25.57;11.17;;;;;;;;;;5105927;28;20479;-73
2024/01/17 06:08:16;;;;;;;18.67;10.60;;;;;;;;;;5106466;28;20269;-73
2024/01/17 06:10:41;;;;;;;23.10;11.88;;;;;;;;;;5103968;28;20015;-73
2024/01/17 06:13:08;;;;;;;20.60;11.88;;;;;;;;;;5105898;28;20036;-73
2024/01/17 06:15:33;;;;;;;20.40;11.77;;;;;;;;;;5104782;28;20020;-73
2024/01/17 06:18:00;;;;;;;27.52;12.30;;;;;;;;;;5106753;28;20030;-73
2024/01/17 06:20:25;;;;;;;23.45;12.18;;;;;;;;;;5105904;28;20023;-73
2024/01/17 06:22:50;;;;;;;23.52;11.63;;;;;;;;;;5104590;28;20281;-73
2024/01/17 06:25:15;;;;;;;22.97;11.77;;;;;;;;;;5106280;28;20106;-73
2024/01/17 06:27:40;;;;;;;21.95;12.02;;;;;;;;;;5104731;28;20272;-73
2024/01/17 06:30:07;;;;;;;23.42;12.02;;;;;;;;;;5106450;28;20019;-73
2024/01/17 06:32:33;;;;;;;23.35;12.07;;;;;;;;;;5106311;28;20148;-73
2024/01/17 06:34:58;;;;;;;22.60;12.47;;;;;;;;;;5104516;28;20446;-73
2024/01/17 06:37:23;;;;;;;22.08;11.25;;;;;;;;;;5106522;28;20272;-73
2024/01/17 06:39:48;;;;;;;22.02;12.02;;;;;;;;;;5104793;28;20085;-73
2024/01/17 06:42:16;;;;;;;22.83;13.10;;;;;;;;;;5105397;28;20022;-73
2024/01/17 06:44:41;;;;;;;26.73;13.57;;;;;;;;;;5106713;28;20381;-74
2024/01/17 06:47:06;;;;;;;22.05;11.88;;;;;;;;;;5103743;28;20044;-73
2024/01/17 06:49:31;;;;;;;21.83;12.05;;;;;;;;;;5108333;28;20016;-73
2024/01/17 06:51:56;;;;;;;26.27;12.20;;;;;;;;;;5102572;28;20078;-73
2024/01/17 06:54:22;;;;;;;22.40;12.85;;;;;;;;;;5105873;28;20424;-73
2024/01/17 06:56:47;;;;;;;22.08;12.50;;;;;;;;;;5101556;28;20523;-74
2024/01/17 06:59:12;;;;;;;20.67;11.65;;;;;;;;;;5110855;28;20470;-73
2024/01/17 07:01:38;;;;;;;25.85;12.43;;;;;;;;;;5102428;28;20050;-73
2024/01/17 07:04:03;;;;;;;22.92;12.98;;;;;;;;;;5109376;28;20119;-73
2024/01/17 07:06:28;;;;;;;22.08;12.52;;;;;;;;;;5103111;28;20382;-73
2024/01/17 07:08:54;;;;;;;21.58;12.10;;;;;;;;;;5101406;28;20055;-74
2024/01/17 07:11:19;;;;;;;20.45;12.02;;;;;;;;;;5107986;28;20019;-73
2024/01/17 07:13:44;;;;;;;18.75;11.20;;;;;;;;;;5101697;28;20024;-73
2024/01/17 07:16:12;;;;;;;19.30;11.55;;;;;;;;;;5101416;28;20020;-73
2024/01/17 07:18:37;;;;;;;24.92;12.52;;;;;;;;;;5109263;28;20390;-73
2024/01/17 07:21:06;;;;;;;20.92;11.77;;;;;;;;;;5101862;28;20012;-73
2024/01/17 07:23:32;;;;;;;21.65;11.90;;;;;;;;;;5108581;28;20063;-73
2024/01/17 07:25:57;;;;;;;19.05;11.13;;;;;;;;;;5101976;28;20024;-74
2024/01/17 07:28:22;;;;;;;20.77;11.60;;;;;;;;;;5108342;28;20019;-73
2024/01/17 07:30:48;;;;;;;21.47;12.00;;;;;;;;;;5102601;28;20493;-73
2024/01/17 07:33:13;;;;;;;24.47;12.40;;;;;;;;;;5106215;28;20261;-73
2024/01/17 07:35:38;;;;;;;24.48;13.23;;;;;;;;;;5104922;28;20753;-73
2024/01/17 07:38:03;;;;;;;23.13;11.53;;;;;;;;;;5103088;28;20158;-73
2024/01/17 07:40:28;;;;;;;21.37;11.60;;;;;;;;;;5104827;28;20273;-73
2024/01/17 07:42:53;;;;;;;20.53;12.10;;;;;;;;;;5103945;28;20329;-73
2024/01/17 07:45:19;;;;;;;23.65;12.30;;;;;;;;;;5104496;28;20330;-73
2024/01/17 07:47:45;;;;;;;20.08;11.57;;;;;;;;;;5104667;28;20467;-73
2024/01/17 07:50:11;;;;;;;22.00;11.80;;;;;;;;;;5104641;28;20035;-73
2024/01/17 07:52:36;;;;;;;23.30;12.30;;;;;;;;;;5104277;28;20027;-73
2024/01/17 07:55:03;;;;;;;22.88;12.10;;;;;;;;;;5104127;28;20024;-73
2024/01/17 07:57:29;;;;;;;22.08;11.95;;;;;;;;;;5104573;28;20506;-73
2024/01/17 07:59:55;;;;;;;19.70;11.50;;;;;;;;;;5104674;28;20386;-73
2024/01/17 08:02:20;;;;;;;20.38;11.90;;;;;;;;;;5103101;28;20024;-73
2024/01/17 08:04:45;;;;;;;16.83;11.00;;;;;;;;;;5104370;28;20027;-73
2024/01/17 08:07:11;;;;;;;19.75;11.65;;;;;;;;;;5100974;28;20047;-73
2024/01/17 08:09:36;;;;;;;20.67;12.30;;;;;;;;;;5104617;28;20035;-73
2024/01/17 08:12:02;;;;;;;23.20;12.00;;;;;;;;;;5103028;28;20464;-73
2024/01/17 08:14:27;;;;;;;23.98;13.15;;;;;;;;;;5102445;28;20024;-73
2024/01/17 08:16:52;;;;;;;21.42;12.15;;;;;;;;;;5104255;28;20024;-73
2024/01/17 08:19:17;;;;;;;22.13;11.60;;;;;;;;;;5103525;28;20040;-73
2024/01/17 08:21:49;;;;;;;23.87;12.67;;;;;;;;;;5103058;28;20012;-73
2024/01/17 08:24:14;;;;;;;26.33;12.40;;;;;;;;;;5105297;28;20293;-73
2024/01/17 08:26:40;;;;;;;21.48;12.30;;;;;;;;;;5101887;28;20046;-73
2024/01/17 08:29:05;;;;;;;21.80;11.88;;;;;;;;;;5107275;28;20016;-73
2024/01/17 08:31:30;;;;;;;20.02;11.40;;;;;;;;;;5100827;28;20482;-73
2024/01/17 08:33:56;;;;;;;23.35;11.20;;;;;;;;;;5107615;28;20028;-73
2024/01/17 08:36:22;;;;;;;23.08;11.10;;;;;;;;;;5100900;28;20024;-73
2024/01/17 08:38:47;;;;;;;23.70;11.20;;;;;;;;;;5108894;28;20387;-73
2024/01/17 08:41:12;;;;;;;22.40;11.75;;;;;;;;;;5100280;28;20089;-73
2024/01/17 08:43:37;;;;;;;22.90;11.40;;;;;;;;;;5107779;28;20024;-73
2024/01/17 08:46:03;;;;;;;18.85;10.90;;;;;;;;;;5102170;28;20095;-73
2024/01/17 08:48:28;;;;;;;19.75;11.95;;;;;;;;;;5105098;28;20023;-73
2024/01/17 08:50:54;;;;;;;20.77;11.32;;;;;;;;;;5103590;28;20023;-73
2024/01/17 08:53:19;;;;;;;22.43;11.53;;;;;;;;;;5103509;28;20501;-73
2024/01/17 08:55:44;;;;;;;20.10;11.00;;;;;;;;;;5103094;28;20276;-73
2024/01/17 08:58:10;;;;;;;18.27;10.10;;;;;;;;;;5102464;28;20047;-73
2024/01/17 09:00:35;;;;;;;19.67;10.68;;;;;;;;;;5102157;28;20455;-73
2024/01/17 09:03:00;;;;;;;21.13;10.97;;;;;;;;;;5103320;28;20163;-73
2024/01/17 09:05:25;;;;;;;19.38;11.07;;;;;;;;;;5100836;28;20362;-74
2024/01/17 09:07:50;;;;;;;21.38;11.77;;;;;;;;;;5103496;28;20016;-73
2024/01/17 09:10:17;;;;;;;20.50;10.98;;;;;;;;;;5102361;28;20041;-73
2024/01/17 09:12:43;;;;;;;22.95;10.95;;;;;;;;;;5107509;27;20449;-73
2024/01/17 09:15:08;;;;;;;19.98;10.57;;;;;;;;;;5107676;28;20051;-73
2024/01/17 09:17:34;;;;;;;22.67;10.55;;;;;;;;;;5105566;28;20024;-73
2024/01/17 09:19:59;;;;;;;22.85;12.23;;;;;;;;;;5107341;28;20051;-73
2024/01/17 09:22:25;;;;;;;19.50;10.82;;;;;;;;;;5105950;28;20047;-73
2024/01/17 09:24:50;;;;;;;23.17;12.43;;;;;;;;;;5107081;28;20019;-73
2024/01/17 09:27:15;;;;;;;17.93;11.33;;;;;;;;;;5107561;28;20427;-73
2024/01/17 09:29:40;;;;;;;20.23;11.33;;;;;;;;;;5105834;28;20281;-73
2024/01/17 09:32:06;;;;;;;18.10;10.43;;;;;;;;;;5107188;28;20691;-73
2024/01/17 09:34:34;;;;;;;24.55;12.48;;;;;;;;;;5108095;28;20289;-73
2024/01/17 09:37:00;;;;;;;20.17;11.57;;;;;;;;;;5105984;28;20028;-73
2024/01/17 09:39:25;;;;;;;24.23;12.43;;;;;;;;;;5109484;28;20076;-73
2024/01/17 09:41:51;;;;;;;19.75;12.43;;;;;;;;;;5104533;28;20024;-73
2024/01/17 09:44:16;;;;;;;24.77;12.38;;;;;;;;;;5110693;28;20031;-73
2024/01/17 09:46:43;;;;;;;21.63;11.82;;;;;;;;;;5103345;28;20020;-73
2024/01/17 09:49:08;;;;;;;19.05;11.07;;;;;;;;;;5112240;28;20102;-74
2024/01/17 09:51:35;;;;;;;23.00;11.88;;;;;;;;;;5102893;28;20111;-73
2024/01/17 09:54:04;;;;;;;21.48;11.57;;;;;;;;;;5111966;28;20364;-74
2024/01/17 09:56:31;;;;;;;22.17;11.77;;;;;;;;;;5103284;28;20555;-74
2024/01/17 09:58:57;;;;;;;18.23;11.27;;;;;;;;;;5103093;28;20030;-74
2024/01/17 10:01:23;;;;;;;21.77;11.68;;;;;;;;;;5109390;28;20020;-74
2024/01/17 10:03:49;;;;;;;18.35;11.80;;;;;;;;;;5102953;28;20039;-74
2024/01/17 10:06:15;;;;;;;20.77;11.27;;;;;;;;;;5108895;28;20065;-73
2024/01/17 10:08:42;;;;;;;18.02;11.07;;;;;;;;;;5103574;28;20036;-73
2024/01/17 10:11:07;;;;;;;17.42;11.07;;;;;;;;;;5108617;28;20024;-74
2024/01/17 10:13:32;;;;;;;23.50;12.65;;;;;;;;;;5103714;28;20100;-73
2024/01/17 10:15:59;;;;;;;20.43;12.40;;;;;;;;;;5102824;28;20107;-74
2024/01/17 10:18:24;;;;;;;24.50;12.25;;;;;;;;;;5111085;28;20278;-74
2024/01/17 10:20:50;;;;;;;19.25;11.57;;;;;;;;;;5101758;28;20024;-74
2024/01/17 10:23:15;;;;;;;20.25;11.40;;;;;;;;;;5108895;28;20050;-74
2024/01/17 10:25:40;;;;;;;19.43;10.53;;;;;;;;;;5104018;28;20379;-74
2024/01/17 10:28:06;;;;;;;18.75;11.85;;;;;;;;;;5107437;28;20308;-74
2024/01/17 10:30:32;;;;;;;18.83;11.90;;;;;;;;;;5106272;28;20051;-74
2024/01/17 10:32:58;;;;;;;21.77;12.80;;;;;;;;;;5104275;28;20168;-73
2024/01/17 10:35:23;;;;;;;21.60;11.25;;;;;;;;;;5106008;28;20712;-74
2024/01/17 10:37:50;;;;;;;22.55;12.43;;;;;;;;;;5105074;27;20064;-74
2024/01/17 10:40:18;;;;;;;23.23;12.40;;;;;;;;;;5105599;28;20023;-74
2024/01/17 10:42:43;;;;;;;20.13;12.35;;;;;;;;;;5105656;28;20107;-74
2024/01/17 10:45:18;;;;;;;23.23;12.80;;;;;;;;;;5105692;28;20157;-74
2024/01/17 10:47:43;;;;;;;24.25;12.27;;;;;;;;;;5104905;28;20736;-74
2024/01/17 10:50:10;;;;;;;20.80;12.80;;;;;;;;;;5105653;28;20031;-74
2024/01/17 10:52:36;;;;;;;26.83;13.63;;;;;;;;;;5105923;28;20257;-74
2024/01/17 10:55:05;;;;;;;23.90;13.65;;;;;;;;;;5104905;27;20028;-74
2024/01/17 10:57:32;;;;;;;22.80;14.13;;;;;;;;;;5105801;28;20035;-74
2024/01/17 11:00:00;;;;;;;29.38;15.70;;;;;;;;;;5103800;28;20049;-74
2024/01/17 11:02:26;;;;;;;24.98;14.45;;;;;;;;;;5104446;28;20607;-74
2024/01/17 11:04:52;;;;;;;27.13;15.43;;;;;;;;;;5105294;28;20104;-74
2024/01/17 11:07:17;;;;;;;24.40;14.73;;;;;;;;;;5103033;28;20020;-74
2024/01/17 11:09:45;;;;;;;25.00;14.55;;;;;;;;;;5104710;28;20030;-74
2024/01/17 11:12:11;;;;;;;26.90;14.75;;;;;;;;;;5103958;28;20012;-74
2024/01/17 11:14:38;;;;;;;26.33;13.85;;;;;;;;;;5104515;28;20020;-74
2024/01/17 11:17:04;;;;;;;23.73;14.65;;;;;;;;;;5104530;28;20035;-74
2024/01/17 11:19:32;;;;;;;25.88;14.65;;;;;;;;;;5104414;28;20012;-74
2024/01/17 11:21:58;;;;;;;24.25;14.80;;;;;;;;;;5104107;28;20309;-74
2024/01/17 11:24:39;;;;;;;25.42;14.15;;;;;;;;;;5105051;28;20049;-74
2024/01/17 11:27:18;;;;;;;21.98;13.70;;;;;;;;;;5099755;28;20035;-74
2024/01/17 11:29:51;;;;;;;27.42;14.43;;;;;;;;;;5103432;28;20035;-74
2024/01/17 11:32:27;;;;;;;29.17;15.07;;;;;;;;;;5105106;28;20016;-74
2024/01/17 11:34:53;;;;;;;23.48;14.30;;;;;;;;;;5104096;28;20040;-74
2024/01/17 11:37:28;;;;;;;23.87;14.73;;;;;;;;;;5104207;28;20087;-74
2024/01/17 11:39:57;;;;;;;26.60;14.65;;;;;;;;;;5103696;28;20763;-74
2024/01/17 11:42:23;;;;;;;21.90;14.02;;;;;;;;;;5105072;28;20019;-74
2024/01/17 11:44:50;;;;;;;24.88;14.38;;;;;;;;;;5103555;28;20039;-74
2024/01/17 11:47:18;;;;;;;23.50;13.82;;;;;;;;;;5099205;28;20047;-74
2024/01/17 11:49:44;;;;;;;24.42;13.93;;;;;;;;;;5105783;28;20016;-74
2024/01/17 11:52:28;;;;;;;23.58;13.60;;;;;;;;;;5102454;28;20475;-74
2024/01/17 11:54:54;;;;;;;23.00;14.38;;;;;;;;;;5104992;28;20019;-74
2024/01/17 11:57:19;;;;;;;20.23;13.32;;;;;;;;;;5103077;28;20040;-74
2024/01/17 11:59:44;;;;;;;24.37;14.07;;;;;;;;;;5107433;28;20102;-74
2024/01/17 12:02:30;;;;;;;19.77;12.00;;;;;;;;;;5101670;28;20621;-74
2024/01/17 12:04:57;;;;;;;18.40;11.13;;;;;;;;;;5102521;28;20320;-74
2024/01/17 12:07:22;;;;;;;20.15;11.18;;;;;;;;;;5102822;28;20024;-74
2024/01/17 12:09:47;;;;;;;19.17;11.52;;;;;;;;;;5104325;28;20068;-74
2024/01/17 12:12:19;;;;;;;19.02;11.18;;;;;;;;;;5101523;28;20019;-74
2024/01/17 12:14:44;;;;;;;18.17;10.68;;;;;;;;;;5096465;28;20023;-74
2024/01/17 12:17:09;;;;;;;15.57;10.95;;;;;;;;;;5104032;28;20471;-74
2024/01/17 12:19:35;;;;;;;19.58;10.65;;;;;;;;;;5102554;28;20030;-74
2024/01/17 12:22:00;;;;;;;19.17;11.10;;;;;;;;;;5104388;28;20020;-74
2024/01/17 12:24:25;;;;;;;21.05;11.23;;;;;;;;;;5103688;28;20082;-74
2024/01/17 12:26:51;;;;;;;20.90;11.02;;;;;;;;;;5102634;28;20471;-74
2024/01/17 12:29:16;;;;;;;19.73;10.85;;;;;;;;;;5105962;28;20099;-74
2024/01/17 12:31:41;;;;;;;21.77;11.02;;;;;;;;;;5101443;28;20024;-74
2024/01/17 12:34:06;;;;;;;18.65;11.88;;;;;;;;;;5107579;28;20024;-74
2024/01/17 12:36:34;;;;;;;18.17;11.65;;;;;;;;;;5100753;28;20019;-74
2024/01/17 12:39:00;;;;;;;19.25;11.30;;;;;;;;;;5108627;28;20035;-74
2024/01/17 12:41:25;;;;;;;18.58;10.63;;;;;;;;;;5100154;28;20013;-74
2024/01/17 12:43:51;;;;;;;17.37;11.00;;;;;;;;;;5108550;28;20028;-74
2024/01/17 12:46:17;;;;;;;18.83;11.85;;;;;;;;;;5104007;28;20339;-75
2024/01/17 12:48:54;;;;;;;21.30;11.32;;;;;;;;;;5111356;28;20048;-75
2024/01/17 12:51:19;;;;;;;19.77;11.70;;;;;;;;;;5105032;28;20016;-74
2024/01/17 12:53:44;;;;;;;20.65;11.25;;;;;;;;;;5110099;28;20377;-74
2024/01/17 12:56:11;;;;;;;19.20;11.32;;;;;;;;;;5112449;28;20485;-74
2024/01/17 12:58:37;;;;;;;19.83;11.68;;;;;;;;;;5104729;28;20086;-74
2024/01/17 13:01:03;;;;;;;23.15;12.07;;;;;;;;;;5101051;28;20024;-75
2024/01/17 13:03:29;;;;;;;20.13;10.70;;;;;;;;;;5107832;28;20028;-74
2024/01/17 13:05:58;;;;;;;20.33;11.57;;;;;;;;;;5108253;28;20023;-74
2024/01/17 13:08:24;;;;;;;21.13;12.05;;;;;;;;;;5105349;28;20068;-74
2024/01/17 13:10:52;;;;;;;24.58;11.88;;;;;;;;;;5107114;28;20020;-74
2024/01/17 13:13:19;;;;;;;20.10;11.27;;;;;;;;;;5107540;28;20508;-74
2024/01/17 13:15:47;;;;;;;19.90;11.20;;;;;;;;;;5103119;28;20024;-75
2024/01/17 13:18:13;;;;;;;18.30;10.10;;;;;;;;;;5110936;28;20023;-74
2024/01/17 13:20:39;;;;;;;25.48;13.45;;;;;;;;;;5105302;28;20114;-74
2024/01/17 13:23:08;;;;;;;30.85;14.48;;;;;;;;;;5108084;28;20415;-74
2024/01/17 13:25:35;;;;;;;30.25;15.45;;;;;;;;;;5107013;28;20023;-74
2024/01/17 13:28:01;;;;;;;20.92;12.05;;;;;;;;;;5107252;28;20466;-74
2024/01/17 13:30:28;;;;;;;20.65;12.30;;;;;;;;;;5107024;28;20023;-74
2024/01/17 13:32:54;;;;;;;22.98;10.98;;;;;;;;;;5106426;28;20066;-74
2024/01/17 13:35:19;;;;;;;18.08;10.65;;;;;;;;;;5107605;28;20020;-74
2024/01/17 13:37:44;;;;;;;19.40;11.00;;;;;;;;;;5105598;28;20024;-74
2024/01/17 13:40:11;;;;;;;23.80;12.45;;;;;;;;;;5107257;28;20016;-75
2024/01/17 13:42:36;;;;;;;22.58;11.13;;;;;;;;;;5106258;28;20077;-75
2024/01/17 13:45:03;;;;;;;18.90;11.43;;;;;;;;;;5106749;28;20028;-74
2024/01/17 13:47:28;;;;;;;24.13;12.52;;;;;;;;;;5107185;28;20019;-74
2024/01/17 13:49:57;;;;;;;20.15;11.13;;;;;;;;;;5106006;28;20102;-74
2024/01/17 13:52:25;;;;;;;26.45;12.00;;;;;;;;;;5107182;28;20015;-74
2024/01/17 13:54:50;;;;;;;21.17;12.15;;;;;;;;;;5113332;28;20019;-74
2024/01/17 13:57:15;;;;;;;19.25;11.13;;;;;;;;;;5104404;28;20093;-74
2024/01/17 13:59:41;;;;;;;21.58;11.60;;;;;;;;;;5107250;28;20012;-74
2024/01/17 14:02:07;;;;;;;21.48;11.98;;;;;;;;;;5104050;28;20012;-74
2024/01/17 14:04:32;;;;;;;19.45;12.45;;;;;;;;;;5106278;28;20490;-75
2024/01/17 14:06:57;;;;;;;22.70;13.43;;;;;;;;;;5105744;28;20018;-75
2024/01/17 14:09:23;;;;;;;24.83;13.37;;;;;;;;;;5104637;28;20278;-75
2024/01/17 14:11:50;;;;;;;19.90;12.35;;;;;;;;;;5106934;28;20297;-74